In Rescue
 
Open Full Screen Window  High Contrast Mode
Wind Gusting 16 knots
09
May 20, 2019 3:49 PM EDT
Weather Information
Wind Direction
  330 °
Wind Speed
  09 kt (10 mph)
Wind Gust
  16 kt (18 mph)
Altimeter
29.96 in
Visibility
10 SM
Temperature
11° C
52° F
Dewpoint
04° C
39° F
Humidity
62%
1hr Rain Fall
00.00 in.
24hr Rain Fall
00.10 in.
Sky Condition
Overcast @ 3,500 ft
Scattered @ 2,700 ft
VFR

METAR KOSC 201949Z AUTO 33009G16KT 10SM SCT027 OVC035 11/04 A2996 RMK AO2 T01050038

FAA Disclaimer: The data displayed is for advisory purposes only and is not to be used for flight planning or operations.